Time;durP1;ratioP1;P1;durP2;ratioP2;P2;SDS_P1;SDS_P2;PMS_P1;PMS_P2;Temp;Humidity;BMP_temperature;BMP_pressure;BME280_temperature;BME280_humidity;BME280_pressure;Samples;Min_cycle;Max_cycle;Signal;HPM_P1;HPM_P2
2022/01/31 00:01:16;;;;;;;0.50;0.50;;;;;;;0.06;76.66;96530.58;105107;1272;74310;-26
2022/01/31 00:03:44;;;;;;;0.40;0.40;;;;;;;-0.01;77.89;96580.05;105136;1271;60942;-26
2022/01/31 00:06:11;;;;;;;2.60;0.70;;;;;;;-0.01;78.66;96584.00;105018;1271;61161;-26
2022/01/31 00:08:40;;;;;;;0.40;0.40;;;;;;;-0.17;79.69;96597.60;104877;1271;74626;-26
2022/01/31 00:11:09;;;;;;;0.40;0.40;;;;;;;0.02;80.57;96583.95;104881;1271;74182;-26
2022/01/31 00:13:40;;;;;;;0.30;0.30;;;;;;;0.13;81.07;96591.77;105006;1271;74504;-26
2022/01/31 00:16:32;;;;;;;0.80;0.50;;;;;;;0.20;81.32;96619.55;104798;1271;62730;-26
2022/01/31 00:18:59;;;;;;;0.80;0.40;;;;;;;-0.05;82.09;96618.04;104635;1274;61034;-27
2022/01/31 00:21:27;;;;;;;1.10;0.40;;;;;;;-0.12;81.94;96608.00;104901;1271;75518;-27
2022/01/31 00:23:54;;;;;;;1.40;0.70;;;;;;;0.04;80.63;96596.73;104909;1271;76344;-27
2022/01/31 00:26:22;;;;;;;0.40;0.40;;;;;;;0.12;78.57;96598.81;105106;1271;74402;-27
2022/01/31 00:28:49;;;;;;;1.50;0.70;;;;;;;0.02;77.70;96610.19;105178;1271;62302;-27
2022/01/31 00:31:20;;;;;;;0.50;0.50;;;;;;;-0.14;78.12;96617.18;105147;1271;61019;-28
2022/01/31 00:33:46;;;;;;;1.10;0.60;;;;;;;-0.27;78.70;96621.42;105021;1271;75710;-28
2022/01/31 00:36:13;;;;;;;1.50;0.70;;;;;;;-0.05;77.43;96630.71;104836;1271;74878;-29
2022/01/31 00:38:40;;;;;;;1.90;0.70;;;;;;;-0.02;76.63;96613.40;104865;1271;74583;-30
2022/01/31 00:41:07;;;;;;;1.30;0.60;;;;;;;0.09;76.10;96603.46;104896;1271;61170;-29
2022/01/31 00:43:39;;;;;;;0.70;0.60;;;;;;;-0.10;76.85;96620.27;104745;1274;62033;-28
2022/01/31 00:46:12;;;;;;;0.60;0.50;;;;;;;-0.26;77.14;96616.56;104825;1271;73721;-28
2022/01/31 00:48:45;;;;;;;1.90;0.70;;;;;;;-0.36;77.54;96616.68;105132;1271;75009;-27
2022/01/31 00:51:12;;;;;;;1.80;0.80;;;;;;;-0.16;76.10;96624.38;105072;1271;74293;-27
2022/01/31 00:53:40;;;;;;;1.00;0.60;;;;;;;-0.15;75.32;96593.05;104804;1271;61153;-26
2022/01/31 00:56:07;;;;;;;1.20;0.70;;;;;;;-0.29;75.35;96615.92;104815;1271;61079;-26
2022/01/31 00:58:39;;;;;;;0.90;0.40;;;;;;;-0.40;75.51;96614.73;104764;1272;75591;-26
2022/01/31 01:01:06;;;;;;;0.90;0.60;;;;;;;-0.44;74.92;96623.27;104871;1271;74927;-26
2022/01/31 01:03:34;;;;;;;1.30;0.50;;;;;;;-0.45;75.16;96615.31;104875;1271;71793;-26
2022/01/31 01:06:01;;;;;;;0.70;0.40;;;;;;;-0.22;74.35;96625.17;104850;1272;61150;-26
2022/01/31 01:08:29;;;;;;;0.60;0.40;;;;;;;-0.27;74.12;96614.06;104914;1271;62097;-26
2022/01/31 01:10:58;;;;;;;1.10;0.50;;;;;;;-0.38;74.43;96623.14;104868;1271;73921;-26
2022/01/31 01:13:25;;;;;;;1.60;0.40;;;;;;;-0.45;75.03;96640.34;104950;1271;76213;-26
2022/01/31 01:15:52;;;;;;;0.40;0.30;;;;;;;-0.63;75.13;96621.38;105032;1271;72667;-26
2022/01/31 01:18:19;;;;;;;0.50;0.40;;;;;;;-0.47;75.05;96638.98;105110;1271;62780;-26
2022/01/31 01:20:47;;;;;;;1.00;0.40;;;;;;;-0.27;74.42;96649.03;105172;1271;61039;-26
2022/01/31 01:23:14;;;;;;;1.40;0.50;;;;;;;-0.29;74.56;96634.89;105141;1271;74598;-26
2022/01/31 01:25:43;;;;;;;0.80;0.40;;;;;;;-0.42;75.57;96626.64;105128;1271;75921;-26
2022/01/31 01:28:10;;;;;;;0.50;0.50;;;;;;;-0.57;76.91;96645.80;105148;1271;74502;-26
2022/01/31 01:30:39;;;;;;;1.20;0.70;;;;;;;-0.62;78.07;96641.95;104758;1274;61162;-26
2022/01/31 01:33:17;;;;;;;0.50;0.40;;;;;;;-0.41;78.32;96664.71;105022;1274;61090;-26
2022/01/31 01:35:47;;;;;;;0.90;0.40;;;;;;;-0.37;78.45;96661.73;105090;1274;74762;-26
2022/01/31 01:38:17;;;;;;;0.90;0.50;;;;;;;-0.51;79.46;96673.02;105090;1271;75011;-26
2022/01/31 01:40:46;;;;;;;0.40;0.40;;;;;;;-0.66;80.07;96666.42;105095;1271;72891;-27
2022/01/31 01:43:15;;;;;;;0.70;0.50;;;;;;;-0.77;79.88;96678.64;105118;1271;61129;-27
2022/01/31 01:45:43;;;;;;;0.40;0.30;;;;;;;-0.58;78.42;96676.23;105092;1271;61043;-27
2022/01/31 01:48:12;;;;;;;0.40;0.30;;;;;;;-0.39;77.02;96662.42;105095;1271;74387;-27
2022/01/31 01:50:39;;;;;;;0.90;0.40;;;;;;;-0.43;75.61;96672.23;105112;1271;76023;-27
2022/01/31 01:53:06;;;;;;;0.40;0.30;;;;;;;-0.53;75.25;96666.81;105081;1274;74368;-28
2022/01/31 01:55:33;;;;;;;0.40;0.30;;;;;;;-0.61;75.13;96677.15;105117;1274;61068;-27
2022/01/31 01:58:04;;;;;;;1.70;0.40;;;;;;;-0.78;74.56;96641.56;105189;1271;62122;-27
2022/01/31 02:00:49;;;;;;;0.40;0.40;;;;;;;-0.78;73.90;96654.13;104744;1271;75553;-27
2022/01/31 02:03:20;;;;;;;0.40;0.40;;;;;;;-0.60;73.06;96643.70;104931;1274;76629;-27
2022/01/31 02:05:48;;;;;;;1.30;0.40;;;;;;;-0.62;73.04;96661.55;104926;1271;74441;-28
2022/01/31 02:08:17;;;;;;;2.80;0.50;;;;;;;-0.74;73.61;96662.25;104752;1274;61143;-27
2022/01/31 02:10:44;;;;;;;0.80;0.50;;;;;;;-0.81;74.24;96660.88;104856;1274;61124;-27
2022/01/31 02:13:17;;;;;;;0.30;0.30;;;;;;;-0.93;75.43;96675.91;105117;1271;74357;-27
2022/01/31 02:16:10;;;;;;;1.00;0.40;;;;;;;-0.94;75.56;96662.33;104880;1271;73812;-28
2022/01/31 02:18:54;;;;;;;0.30;0.30;;;;;;;-0.75;74.68;96657.00;104886;1271;74115;-27
2022/01/31 02:21:44;;;;;;;0.30;0.30;;;;;;;-0.70;74.93;96687.50;104831;1271;61076;-28
2022/01/31 02:24:30;;;;;;;0.20;0.20;;;;;;;-0.77;75.84;96686.50;105096;1271;61032;-27
2022/01/31 02:27:29;;;;;;;0.60;0.40;;;;;;;-0.86;76.55;96679.29;105111;1271;75553;-26
2022/01/31 02:29:56;;;;;;;0.50;0.40;;;;;;;-0.85;77.42;96679.39;104787;1271;75874;-27
2022/01/31 02:32:23;;;;;;;1.20;0.50;;;;;;;-0.64;77.47;96674.30;105066;1271;73290;-27
2022/01/31 02:34:54;;;;;;;1.00;0.60;;;;;;;-0.50;77.27;96681.75;104748;1271;61102;-27
2022/01/31 02:37:21;;;;;;;0.80;0.60;;;;;;;-0.68;77.94;96680.69;104972;1271;61148;-26
2022/01/31 02:39:49;;;;;;;1.00;0.80;;;;;;;-0.83;79.23;96690.63;104982;1271;74275;-26
2022/01/31 02:42:16;;;;;;;0.90;0.70;;;;;;;-1.02;79.39;96684.86;104794;1274;76391;-26
2022/01/31 02:44:44;;;;;;;1.20;0.60;;;;;;;-0.70;78.89;96695.17;104648;1274;74342;-27
2022/01/31 02:47:53;;;;;;;1.50;0.70;;;;;;;-0.60;77.80;96690.37;104737;1275;61163;-26
2022/01/31 02:50:12;;;;;;;0.90;0.50;;;;;;;-0.66;77.30;96683.14;105003;1271;60992;-27
2022/01/31 02:52:46;;;;;;;0.70;0.60;;;;;;;-0.94;77.87;96679.51;104877;1271;75455;-27
2022/01/31 02:55:13;;;;;;;0.60;0.50;;;;;;;-1.15;78.42;96690.50;105104;1271;75122;-26
2022/01/31 02:57:42;;;;;;;0.50;0.50;;;;;;;-1.17;78.54;96698.02;105148;1271;73003;-27
2022/01/31 03:00:11;;;;;;;0.50;0.40;;;;;;;-0.78;77.52;96698.83;104922;1271;61012;-27
2022/01/31 03:03:03;;;;;;;0.30;0.20;;;;;;;-0.56;76.08;96696.67;104701;1274;61182;-27
2022/01/31 03:05:31;;;;;;;0.70;0.50;;;;;;;-0.74;76.49;96705.98;104808;1274;74763;-27
2022/01/31 03:07:58;;;;;;;0.40;0.40;;;;;;;-0.95;77.54;96711.77;104869;1274;75934;-26
2022/01/31 03:10:26;;;;;;;1.10;0.60;;;;;;;-0.99;77.86;96709.69;105014;1273;74397;-26
2022/01/31 03:12:53;;;;;;;1.30;0.40;;;;;;;-0.76;76.97;96696.95;105110;1274;61125;-26
2022/01/31 03:15:20;;;;;;;1.00;0.60;;;;;;;-0.49;75.74;96710.50;104953;1274;61727;-26
2022/01/31 03:18:12;;;;;;;0.60;0.60;;;;;;;-0.62;75.74;96701.73;105053;1271;75510;-26
2022/01/31 03:20:40;;;;;;;0.50;0.50;;;;;;;-0.71;76.49;96702.75;105126;1271;75826;-26
2022/01/31 03:23:08;;;;;;;1.30;1.00;;;;;;;-0.84;76.70;96708.98;105077;1274;74399;-26
2022/01/31 03:25:36;;;;;;;0.90;0.70;;;;;;;-1.06;77.45;96705.77;105126;1271;61144;-26
2022/01/31 03:28:03;;;;;;;0.60;0.50;;;;;;;-0.81;76.03;96698.85;105129;1271;61091;-26
2022/01/31 03:30:30;;;;;;;0.90;0.60;;;;;;;-0.63;75.38;96713.23;104879;1274;75429;-26
2022/01/31 03:32:57;;;;;;;1.00;0.50;;;;;;;-0.76;75.37;96725.72;105082;1274;74870;-26
2022/01/31 03:35:25;;;;;;;0.40;0.40;;;;;;;-0.88;75.50;96730.22;104960;1274;74415;-26
2022/01/31 03:37:52;;;;;;;0.90;0.50;;;;;;;-1.11;75.24;96712.23;105114;1271;61042;-26
2022/01/31 03:40:22;;;;;;;0.80;0.50;;;;;;;-1.23;75.82;96724.98;105149;1271;61245;-26
2022/01/31 03:42:49;;;;;;;0.90;0.50;;;;;;;-1.18;75.65;96713.89;104920;1271;74286;-26
2022/01/31 03:45:16;;;;;;;0.70;0.50;;;;;;;-0.90;74.76;96731.23;105164;1271;76115;-26
2022/01/31 03:47:46;;;;;;;0.70;0.50;;;;;;;-0.95;74.60;96732.05;104889;1271;74455;-26
2022/01/31 03:50:17;;;;;;;1.10;0.70;;;;;;;-1.12;74.74;96704.48;104891;1271;61263;-25
2022/01/31 03:52:48;;;;;;;2.30;0.70;;;;;;;-1.37;76.07;96727.83;104557;1271;61033;-24
2022/01/31 03:55:15;;;;;;;1.20;0.70;;;;;;;-1.43;76.69;96729.80;104843;1271;75602;-24
2022/01/31 03:57:46;;;;;;;1.50;0.80;;;;;;;-1.17;76.01;96721.02;104950;1270;75122;-23
2022/01/31 04:00:37;;;;;;;1.90;0.60;;;;;;;-1.06;75.41;96731.27;104864;1271;71884;-23
2022/01/31 04:03:05;;;;;;;2.10;0.90;;;;;;;-1.02;75.17;96719.42;105041;1271;61095;-25
2022/01/31 04:05:32;;;;;;;1.10;0.60;;;;;;;-1.11;75.59;96735.39;104868;1271;61036;-25
2022/01/31 04:08:00;;;;;;;1.40;0.80;;;;;;;-1.16;75.72;96727.39;104939;1271;74504;-24
2022/01/31 04:10:30;;;;;;;2.50;0.90;;;;;;;-1.36;75.83;96708.67;104975;1274;76588;-26
2022/01/31 04:12:57;;;;;;;1.00;0.70;;;;;;;-1.29;75.98;96711.45;105109;1271;74350;-24
2022/01/31 04:15:23;;;;;;;1.40;0.80;;;;;;;-0.93;74.88;96714.22;105082;1271;61167;-24
2022/01/31 04:17:52;;;;;;;1.90;0.90;;;;;;;-0.97;74.57;96716.89;104930;1271;61022;-23
2022/01/31 04:20:20;;;;;;;1.60;0.70;;;;;;;-1.20;74.80;96699.27;104764;1271;74171;-23
2022/01/31 04:22:56;;;;;;;1.10;0.70;;;;;;;-1.24;74.90;96716.19;104965;1271;76015;-23
2022/01/31 04:25:41;;;;;;;1.10;0.70;;;;;;;-1.44;75.39;96718.79;104999;1271;72872;-25
2022/01/31 04:28:19;;;;;;;1.60;0.50;;;;;;;-1.42;75.27;96735.36;105128;1271;61096;-24
2022/01/31 04:33:38;;;;;;;1.00;0.50;;;;;;;-1.21;74.40;96722.17;104565;1274;75288;-25
2022/01/31 04:36:06;;;;;;;1.10;0.60;;;;;;;-1.33;74.54;96753.77;104853;1271;74962;-25
2022/01/31 04:38:33;;;;;;;0.60;0.40;;;;;;;-1.50;75.11;96735.88;104648;1274;74710;-25
2022/01/31 04:41:00;;;;;;;3.20;0.90;;;;;;;-1.59;75.35;96745.51;104841;1271;61127;-25
2022/01/31 04:43:27;;;;;;;1.00;0.50;;;;;;;-1.63;75.47;96760.63;104984;1271;61073;-25
2022/01/31 04:45:56;;;;;;;1.50;0.90;;;;;;;-1.45;74.72;96745.94;104854;1271;75640;-26
2022/01/31 04:48:23;;;;;;;0.70;0.50;;;;;;;-1.26;74.08;96776.65;104928;1271;76104;-25
2022/01/31 04:50:50;;;;;;;1.60;0.50;;;;;;;-1.39;74.35;96748.23;104855;1274;72847;-24
2022/01/31 04:53:17;;;;;;;0.40;0.30;;;;;;;-1.50;75.08;96778.97;104812;1274;61134;-24
2022/01/31 04:55:44;;;;;;;1.30;0.70;;;;;;;-1.57;75.74;96768.91;104951;1274;61038;-24
2022/01/31 04:58:11;;;;;;;1.80;0.50;;;;;;;-1.49;75.12;96763.20;104821;1273;74529;-24
2022/01/31 05:00:39;;;;;;;0.80;0.50;;;;;;;-1.20;73.88;96763.60;105003;1274;75672;-24
2022/01/31 05:03:15;;;;;;;0.90;0.50;;;;;;;-1.14;73.73;96776.15;104787;1274;74396;-24
2022/01/31 05:05:42;;;;;;;0.50;0.40;;;;;;;-1.28;73.93;96760.60;104643;1274;61090;-24
2022/01/31 05:08:09;;;;;;;1.30;0.60;;;;;;;-1.40;74.17;96766.83;104769;1274;62274;-25
2022/01/31 05:10:43;;;;;;;2.30;0.60;;;;;;;-1.49;74.48;96754.39;104852;1274;74675;-24
2022/01/31 05:13:12;;;;;;;1.80;0.80;;;;;;;-1.42;74.32;96761.53;104819;1274;76037;-24
2022/01/31 05:15:40;;;;;;;0.90;0.70;;;;;;;-1.10;73.18;96760.19;104731;1274;73564;-24
2022/01/31 05:18:07;;;;;;;4.80;0.90;;;;;;;-1.08;73.30;96752.88;104632;1274;61135;-26
2022/01/31 05:20:35;;;;;;;1.40;0.90;;;;;;;-1.22;73.85;96785.02;104703;1274;61828;-23
2022/01/31 05:23:06;;;;;;;1.50;0.70;;;;;;;-1.34;75.40;96795.08;104819;1274;75665;-24
2022/01/31 05:25:34;;;;;;;0.60;0.40;;;;;;;-1.40;76.14;96797.16;104420;1274;75013;-25
2022/01/31 05:28:01;;;;;;;1.80;0.70;;;;;;;-1.40;76.36;96786.60;104660;1274;74435;-25
2022/01/31 05:30:30;;;;;;;1.30;0.50;;;;;;;-1.15;76.30;96802.80;104580;1274;360691;-25
2022/01/31 05:32:57;;;;;;;1.60;0.60;;;;;;;-1.16;76.51;96804.70;104834;1274;62625;-25
2022/01/31 05:35:25;;;;;;;1.50;0.70;;;;;;;-1.38;77.37;96791.39;104843;1274;75651;-23
2022/01/31 05:37:52;;;;;;;1.20;0.60;;;;;;;-1.56;78.39;96791.97;104785;1274;75853;-23
2022/01/31 05:40:19;;;;;;;4.00;0.80;;;;;;;-1.67;80.11;96809.85;104763;1274;73468;-23
2022/01/31 05:42:46;;;;;;;0.90;0.50;;;;;;;-1.26;78.05;96811.36;104809;1274;61141;-23
2022/01/31 05:45:13;;;;;;;1.70;0.80;;;;;;;-1.25;77.61;96787.45;104857;1274;61140;-23
2022/01/31 05:47:40;;;;;;;1.60;0.80;;;;;;;-1.34;78.33;96810.88;104751;1274;75366;-23
2022/01/31 05:50:08;;;;;;;1.70;0.60;;;;;;;-1.68;79.76;96806.84;104871;1274;75167;-23
2022/01/31 05:52:35;;;;;;;0.80;0.50;;;;;;;-1.71;80.73;96825.77;104807;1274;73649;-23
2022/01/31 05:55:03;;;;;;;1.30;0.70;;;;;;;-1.59;79.99;96815.33;105108;1274;61141;-23
2022/01/31 05:57:32;;;;;;;2.10;0.70;;;;;;;-1.24;78.25;96822.13;105132;1274;60968;-23
2022/01/31 06:00:00;;;;;;;1.20;0.80;;;;;;;-1.23;76.69;96791.09;104925;1272;75575;-23
2022/01/31 06:02:28;;;;;;;1.00;0.60;;;;;;;-1.34;75.90;96790.95;104754;1273;77194;-23
2022/01/31 06:04:56;;;;;;;2.30;0.80;;;;;;;-1.40;75.84;96817.23;104732;1274;73647;-23
2022/01/31 06:07:23;;;;;;;1.60;0.70;;;;;;;-1.51;75.09;96802.00;104813;1271;61157;-24
2022/01/31 06:09:50;;;;;;;0.80;0.50;;;;;;;-1.59;74.14;96795.70;105037;1271;61133;-23
2022/01/31 06:12:17;;;;;;;1.10;0.70;;;;;;;-1.41;73.37;96800.10;104885;1271;75448;-23
2022/01/31 06:14:45;;;;;;;1.60;0.40;;;;;;;-1.13;72.06;96805.17;104893;1271;74847;-24
2022/01/31 06:17:12;;;;;;;2.10;0.60;;;;;;;-1.06;71.60;96823.59;104892;1271;74484;-23
2022/01/31 06:19:39;;;;;;;1.60;0.80;;;;;;;-1.11;70.99;96811.67;104823;1274;61147;-23
2022/01/31 06:22:06;;;;;;;0.60;0.60;;;;;;;-1.29;71.24;96819.89;104869;1271;61831;-24
2022/01/31 06:24:33;;;;;;;0.60;0.40;;;;;;;-1.34;72.15;96813.65;104926;1271;75659;-23
2022/01/31 06:27:09;;;;;;;0.50;0.50;;;;;;;-1.50;72.66;96825.08;104897;1271;75923;-23
2022/01/31 06:29:36;;;;;;;1.60;0.60;;;;;;;-1.48;72.82;96818.46;104937;1271;74364;-23
2022/01/31 06:32:08;;;;;;;1.10;0.50;;;;;;;-1.21;71.70;96821.04;104772;1271;62342;-23
2022/01/31 06:34:35;;;;;;;4.70;0.50;;;;;;;-1.07;71.49;96820.63;104674;1274;62009;-24
2022/01/31 06:37:04;;;;;;;2.00;0.70;;;;;;;-1.31;72.11;96819.21;104852;1271;75445;-23
2022/01/31 06:39:31;;;;;;;0.90;0.50;;;;;;;-1.46;73.66;96852.02;105157;1271;74371;-23
2022/01/31 06:41:58;;;;;;;0.90;0.60;;;;;;;-1.61;75.88;96868.69;105082;1271;74949;-23
2022/01/31 06:44:25;;;;;;;0.50;0.50;;;;;;;-1.78;76.55;96855.67;105130;1271;62034;-23
2022/01/31 06:46:53;;;;;;;0.90;0.60;;;;;;;-1.49;75.56;96856.81;105063;1271;61043;-24
2022/01/31 06:49:20;;;;;;;2.10;0.40;;;;;;;-1.48;75.05;96850.14;104876;1272;72824;-23
2022/01/31 06:51:47;;;;;;;1.00;0.70;;;;;;;-1.54;76.30;96885.25;105152;1274;75075;-23
2022/01/31 06:54:14;;;;;;;1.60;0.50;;;;;;;-1.76;77.22;96880.70;105067;1271;74617;-24
2022/01/31 06:57:23;;;;;;;1.60;0.60;;;;;;;-1.78;77.73;96887.34;101835;1309;600649;-23
2022/01/31 06:59:52;;;;;;;0.40;0.40;;;;;;;-1.68;76.42;96875.80;104360;1284;61003;-24
2022/01/31 07:02:21;;;;;;;0.60;0.60;;;;;;;-1.49;75.51;96895.31;104437;1284;61090;-25
2022/01/31 07:04:49;;;;;;;0.80;0.50;;;;;;;-1.46;74.87;96876.54;104487;1284;73005;-24
2022/01/31 07:07:18;;;;;;;1.70;0.60;;;;;;;-1.51;75.18;96887.27;104533;1284;76031;-25
2022/01/31 07:09:47;;;;;;;0.80;0.60;;;;;;;-1.74;75.40;96879.77;104351;1284;241621;-24
2022/01/31 07:12:17;;;;;;;2.10;0.40;;;;;;;-1.80;74.94;96873.16;104535;1281;61041;-25
2022/01/31 07:14:45;;;;;;;0.30;0.30;;;;;;;-1.80;74.62;96888.52;104594;1281;61248;-23
2022/01/31 07:17:14;;;;;;;1.50;0.40;;;;;;;-1.48;73.92;96902.21;104505;1281;74021;-23
2022/01/31 07:19:42;;;;;;;0.40;0.40;;;;;;;-1.04;71.57;96894.82;104392;1284;75048;-23
2022/01/31 07:22:13;;;;;;;0.50;0.50;;;;;;;-1.09;70.89;96897.53;104538;1284;74141;-23
2022/01/31 07:24:46;;;;;;;2.10;0.40;;;;;;;-1.24;70.22;96896.88;104447;1282;61069;-23
2022/01/31 07:27:14;;;;;;;1.10;0.70;;;;;;;-1.21;70.38;96907.02;104421;1284;61032;-25
2022/01/31 07:29:45;;;;;;;1.50;0.70;;;;;;;-1.32;70.40;96892.60;104360;1284;73980;-23
2022/01/31 07:32:14;;;;;;;1.10;0.60;;;;;;;-1.35;70.50;96882.11;104189;1284;75065;-24
2022/01/31 07:34:43;;;;;;;1.50;0.60;;;;;;;-1.42;70.23;96898.21;104310;1283;74385;-23
2022/01/31 07:37:12;;;;;;;1.00;0.50;;;;;;;-1.41;70.14;96911.06;104527;1284;61141;-23
2022/01/31 07:39:42;;;;;;;2.00;0.60;;;;;;;-1.49;70.16;96909.23;104503;1284;62218;-23
2022/01/31 07:42:11;;;;;;;0.80;0.40;;;;;;;-1.45;69.37;96907.97;104346;1284;73641;-23
2022/01/31 07:44:49;;;;;;;1.10;0.60;;;;;;;-0.92;68.28;96918.06;104494;1284;75905;-23
2022/01/31 07:47:17;;;;;;;1.80;0.60;;;;;;;-0.74;67.49;96929.10;104463;1282;73370;-24
2022/01/31 07:49:45;;;;;;;2.20;0.70;;;;;;;-0.91;67.78;96924.10;104490;1284;61124;-24
2022/01/31 07:52:14;;;;;;;2.60;0.90;;;;;;;-0.94;67.85;96914.79;104551;1284;61028;-24
2022/01/31 07:54:44;;;;;;;1.30;0.60;;;;;;;-1.09;68.08;96923.07;104494;1284;74721;-24
2022/01/31 07:57:13;;;;;;;1.60;0.70;;;;;;;-1.23;68.61;96909.73;104168;1284;76168;-24
2022/01/31 08:00:00;;;;;;;1.00;0.60;;;;;;;-1.21;68.64;96914.71;104507;1284;74516;-24
2022/01/31 08:02:40;;;;;;;2.40;0.60;;;;;;;-1.24;69.04;96905.40;104243;1284;61028;-25
2022/01/31 08:05:09;;;;;;;1.80;0.90;;;;;;;-1.27;69.14;96909.14;104200;1284;62046;-25
2022/01/31 08:07:38;;;;;;;1.80;0.90;;;;;;;-1.27;69.25;96895.19;103911;1284;74702;-26
2022/01/31 08:10:06;;;;;;;1.50;0.70;;;;;;;-1.30;69.19;96913.98;104417;1284;76540;-25
2022/01/31 08:12:37;;;;;;;1.40;0.60;;;;;;;-1.30;69.12;96898.84;104321;1282;74392;-26
2022/01/31 08:15:08;;;;;;;1.40;0.70;;;;;;;-1.35;69.71;96923.11;104357;1283;61077;-26
2022/01/31 08:17:37;;;;;;;1.00;0.50;;;;;;;-1.38;69.91;96928.42;103926;1284;61063;-26
2022/01/31 08:20:07;;;;;;;2.60;0.70;;;;;;;-1.40;70.62;96949.67;104139;1283;73534;-26
2022/01/31 08:22:36;;;;;;;1.90;0.80;;;;;;;-1.20;70.35;96964.67;104301;1284;73407;-26
2022/01/31 08:25:06;;;;;;;1.20;1.00;;;;;;;-0.82;68.74;96954.31;104464;1284;73443;-26
2022/01/31 08:27:34;;;;;;;4.40;0.80;;;;;;;-0.85;68.63;96938.49;104254;1284;61055;-26
2022/01/31 08:30:09;;;;;;;3.90;0.60;;;;;;;-1.12;69.57;96950.57;104382;1284;61255;-26
2022/01/31 08:32:45;;;;;;;1.80;0.60;;;;;;;-1.13;69.69;96939.41;104499;1284;72795;-27
2022/01/31 08:38:00;;;;;;;1.10;0.80;;;;;;;-1.22;70.80;96951.20;104542;1279;74402;-25
2022/01/31 08:40:29;;;;;;;2.30;0.90;;;;;;;-1.31;71.30;96959.12;104464;1281;61148;-25
2022/01/31 08:43:02;;;;;;;3.00;1.00;;;;;;;-1.29;71.27;96969.70;104811;1276;61100;-25
2022/01/31 08:45:33;;;;;;;1.10;0.40;;;;;;;-1.23;71.58;96994.16;104651;1277;74607;-25
2022/01/31 08:48:05;;;;;;;2.30;0.80;;;;;;;-0.90;70.14;96982.79;104681;1277;75218;-25
2022/01/31 08:50:34;;;;;;;2.40;0.70;;;;;;;-0.82;69.81;96983.27;104630;1277;72291;-25
2022/01/31 08:53:03;;;;;;;2.80;1.00;;;;;;;-0.83;69.81;96987.29;104688;1277;61239;-25
2022/01/31 08:55:32;;;;;;;1.30;0.80;;;;;;;-0.98;70.97;96979.92;105130;1274;61131;-26
2022/01/31 08:58:00;;;;;;;2.80;1.10;;;;;;;-1.01;70.75;96991.52;105148;1271;74685;-25
2022/01/31 09:00:36;;;;;;;2.30;1.00;;;;;;;-1.21;71.21;96986.42;105154;1271;75844;-25
2022/01/31 09:05:42;;;;;;;0.80;0.50;;;;;;;-1.15;71.96;97000.45;105078;1271;61847;-25
2022/01/31 09:08:10;;;;;;;2.20;0.80;;;;;;;-0.95;71.00;96991.32;105215;1271;61493;-26
2022/01/31 09:10:40;;;;;;;2.90;1.10;;;;;;;-0.71;70.55;97012.72;105163;1271;74479;-27
2022/01/31 09:13:10;;;;;;;2.40;0.70;;;;;;;-0.76;70.80;97008.96;105125;1274;76180;-26
2022/01/31 09:15:40;;;;;;;2.00;0.80;;;;;;;-0.92;70.60;96990.95;105094;1271;74453;-26
2022/01/31 09:18:09;;;;;;;2.60;1.30;;;;;;;-0.93;70.74;96982.36;105009;1271;61741;-26
2022/01/31 09:20:37;;;;;;;1.40;0.80;;;;;;;-1.16;71.22;96991.67;104864;1271;61109;-26
2022/01/31 09:23:06;;;;;;;2.90;0.80;;;;;;;-1.09;71.25;97006.88;105092;1271;73558;-28
2022/01/31 09:25:35;;;;;;;2.50;0.70;;;;;;;-1.09;71.24;97003.52;105093;1271;76055;-26
2022/01/31 09:28:04;;;;;;;0.90;0.60;;;;;;;-1.06;71.54;97008.59;104965;1274;72907;-26
2022/01/31 09:30:32;;;;;;;1.90;0.80;;;;;;;-0.77;70.61;97001.50;104686;1271;61109;-26
2022/01/31 09:33:01;;;;;;;0.80;0.60;;;;;;;-0.73;69.74;97015.70;105024;1271;61047;-26
2022/01/31 09:35:29;;;;;;;1.30;0.70;;;;;;;-0.67;69.76;97026.95;105147;1271;74556;-26
2022/01/31 09:37:58;;;;;;;3.10;0.80;;;;;;;-0.77;69.55;97010.19;105081;1271;75048;-27
2022/01/31 09:40:26;;;;;;;1.80;0.80;;;;;;;-0.96;69.60;97002.48;104820;1271;73418;-27
2022/01/31 09:43:03;;;;;;;4.40;0.70;;;;;;;-0.98;70.77;97010.90;105030;1271;61233;-27
2022/01/31 09:48:33;;;;;;;1.90;0.90;;;;;;;-1.14;69.63;96987.30;104964;1271;73126;-26
2022/01/31 09:51:11;;;;;;;3.60;1.40;;;;;;;-1.12;69.98;97020.90;105108;1271;75183;-26
2022/01/31 09:53:40;;;;;;;3.40;1.30;;;;;;;-1.10;69.91;97010.55;105098;1271;74282;-26
2022/01/31 09:56:10;;;;;;;1.20;0.90;;;;;;;-0.78;68.19;96998.33;105164;1271;61041;-25
2022/01/31 09:58:39;;;;;;;2.30;1.00;;;;;;;-0.60;67.80;97016.93;104782;1271;61984;-25
2022/01/31 10:01:07;;;;;;;3.60;1.10;;;;;;;-0.67;68.39;97019.98;104935;1271;73852;-25
2022/01/31 10:03:44;;;;;;;1.80;1.00;;;;;;;-0.82;69.14;97019.63;104908;1271;76033;-25
2022/01/31 10:06:21;;;;;;;2.60;0.80;;;;;;;-0.92;70.57;97035.77;104979;1271;74606;-27
2022/01/31 10:09:11;;;;;;;1.00;0.70;;;;;;;-1.00;71.86;97039.86;105138;1271;60996;-25
2022/01/31 10:11:53;;;;;;;1.40;0.90;;;;;;;-1.18;72.80;97038.98;105128;1271;61115;-26
2022/01/31 10:17:35;;;;;;;1.10;0.70;;;;;;;-0.67;70.96;97061.85;105039;1271;75037;-28
2022/01/31 10:20:18;;;;;;;2.20;1.10;;;;;;;-0.68;70.63;97026.45;104791;1272;71543;-24
2022/01/31 10:22:47;;;;;;;3.10;0.90;;;;;;;-0.70;70.80;97044.84;104975;1271;61167;-25
2022/01/31 10:25:17;;;;;;;2.30;0.90;;;;;;;-0.87;71.32;97050.04;105141;1271;61223;-27
2022/01/31 10:28:18;;;;;;;3.00;0.90;;;;;;;-1.06;71.57;97048.29;105107;1271;75121;-25
2022/01/31 10:30:48;;;;;;;3.10;0.90;;;;;;;-1.21;72.03;97045.64;105099;1271;75083;-24
2022/01/31 10:33:18;;;;;;;3.10;1.00;;;;;;;-1.11;71.51;97044.31;105087;1271;70656;-28
2022/01/31 10:35:46;;;;;;;1.10;0.70;;;;;;;-1.15;70.74;97037.95;104886;1271;61158;-27
2022/01/31 10:38:19;;;;;;;0.50;0.50;;;;;;;-0.98;70.78;97059.46;104942;1271;61074;-26
2022/01/31 10:52:06;;;;;;;2.40;0.80;;;;;;;-0.84;68.62;97044.77;105121;1272;62062;-27
2022/01/31 10:57:21;;;;;;;2.10;0.90;;;;;;;-0.78;68.17;97043.87;105163;1271;73730;-26
2022/01/31 10:59:51;;;;;;;1.60;0.80;;;;;;;-0.83;68.49;97057.45;105090;1271;71751;-26
2022/01/31 11:02:24;;;;;;;1.20;0.70;;;;;;;-0.93;67.87;97041.14;105116;1273;61125;-26
2022/01/31 11:04:53;;;;;;;2.10;0.80;;;;;;;-0.91;68.06;97047.80;105113;1271;61057;-25
2022/01/31 11:07:24;;;;;;;2.20;0.50;;;;;;;-0.96;68.13;97043.02;105149;1271;74761;-26
2022/01/31 11:09:53;;;;;;;1.00;0.70;;;;;;;-0.88;68.76;97061.59;104888;1271;75968;-26
2022/01/31 11:12:35;;;;;;;1.50;0.80;;;;;;;-0.57;66.99;97049.63;104880;1274;74414;-26
2022/01/31 11:15:05;;;;;;;1.40;0.40;;;;;;;-0.20;66.42;97074.23;105080;1274;61044;-25
2022/01/31 11:17:35;;;;;;;2.40;0.70;;;;;;;-0.22;65.30;97046.55;104886;1271;61195;-25
2022/01/31 11:20:06;;;;;;;1.00;0.80;;;;;;;-0.32;66.19;97065.29;105113;1271;76353;-26
2022/01/31 11:22:42;;;;;;;2.20;1.00;;;;;;;-0.64;67.69;97065.25;105101;1271;76250;-25
2022/01/31 11:25:15;;;;;;;2.50;0.80;;;;;;;-0.72;68.03;97042.58;105106;1271;72895;-26
2022/01/31 11:27:57;;;;;;;1.70;0.90;;;;;;;-0.72;67.69;97043.09;104734;1273;61198;-25
2022/01/31 11:30:26;;;;;;;2.20;0.90;;;;;;;-0.79;68.26;97066.02;104706;1271;61048;-26
2022/01/31 11:32:54;;;;;;;1.90;0.90;;;;;;;-0.84;68.87;97065.52;105086;1271;75335;-25
2022/01/31 11:35:23;;;;;;;3.00;0.80;;;;;;;-0.81;69.01;97073.72;105122;1271;75143;-25
2022/01/31 11:37:52;;;;;;;3.50;0.90;;;;;;;-0.84;68.02;97035.41;105097;1272;72669;-25
2022/01/31 11:40:20;;;;;;;2.10;0.80;;;;;;;-0.90;68.60;97046.17;105149;1271;61160;-25
2022/01/31 11:42:50;;;;;;;3.70;0.80;;;;;;;-0.94;68.85;97049.02;105109;1274;61014;-26
2022/01/31 11:45:19;;;;;;;1.20;0.60;;;;;;;-0.65;67.51;97040.97;105144;1271;74586;-25
2022/01/31 11:47:49;;;;;;;2.10;0.80;;;;;;;-0.32;66.06;97031.40;104986;1272;76431;-25
2022/01/31 11:50:20;;;;;;;1.50;0.50;;;;;;;-0.32;65.98;97049.65;105062;1274;74299;-25
2022/01/31 11:53:01;;;;;;;1.50;0.60;;;;;;;-0.41;66.18;97055.83;104878;1271;61137;-24
2022/01/31 11:55:34;;;;;;;3.10;0.90;;;;;;;-0.54;66.95;97065.46;104743;1277;61148;-25
2022/01/31 11:58:07;;;;;;;0.50;0.40;;;;;;;-0.61;65.94;97048.70;105061;1271;74648;-25
2022/01/31 12:00:39;;;;;;;5.80;0.90;;;;;;;-0.61;66.11;97055.84;104907;1272;74188;-25
2022/01/31 12:03:09;;;;;;;1.40;0.70;;;;;;;-0.68;65.34;97040.77;104674;1274;73379;-25
2022/01/31 12:05:38;;;;;;;2.10;1.00;;;;;;;-0.72;65.84;97056.25;104808;1271;61256;-26
2022/01/31 12:08:17;;;;;;;1.00;0.60;;;;;;;-0.71;65.05;97037.42;104953;1271;61151;-25